Time;durP1;ratioP1;P1;durP2;ratioP2;P2;SDS_P1;SDS_P2;PMS_P1;PMS_P2;Temp;Humidity;BMP_temperature;BMP_pressure;BME280_temperature;BME280_humidity;BME280_pressure;Samples;Min_cycle;Max_cycle;Signal;HPM_P1;HPM_P2
2023/03/07 00:00:36;;;;;;;20.70;7.63;;;4.00;99.90;;;;;;5160184;28;20044;-70
2023/03/07 00:03:13;;;;;;;16.02;8.23;;;3.80;99.90;;;;;;5171576;28;20040;-68
2023/03/07 00:05:44;;;;;;;15.50;6.72;;;3.80;99.90;;;;;;5161547;28;20053;-68
2023/03/07 00:08:18;;;;;;;14.75;7.45;;;3.80;99.90;;;;;;5136675;28;20046;-68
2023/03/07 00:10:50;;;;;;;17.38;7.57;;;3.80;99.90;;;;;;5155419;28;20056;-68
2023/03/07 00:13:29;;;;;;;17.35;8.50;;;3.80;99.90;;;;;;5152081;28;20070;-66
2023/03/07 00:16:05;;;;;;;16.17;8.20;;;3.70;99.90;;;;;;5142863;28;20046;-69
2023/03/07 00:18:37;;;;;;;15.38;7.22;;;3.70;99.90;;;;;;5153192;28;20030;-68
2023/03/07 00:21:20;;;;;;;15.10;7.82;;;3.60;99.90;;;;;;5143236;28;20044;-68
2023/03/07 00:23:52;;;;;;;14.68;7.65;;;3.50;99.90;;;;;;5119934;28;20046;-68
2023/03/07 00:26:26;;;;;;;17.00;8.38;;;3.30;99.90;;;;;;5120167;28;20366;-67
2023/03/07 00:28:57;;;;;;;20.17;8.68;;;3.20;99.90;;;;;;5171748;28;20334;-67
2023/03/07 00:31:31;;;;;;;16.23;7.63;;;3.20;99.90;;;;;;5173292;28;20044;-68
2023/03/07 00:34:08;;;;;;;18.20;7.75;;;3.00;99.90;;;;;;5155173;28;20357;-69
2023/03/07 00:36:44;;;;;;;17.23;8.38;;;3.00;99.90;;;;;;5172325;28;20046;-66
2023/03/07 00:39:18;;;;;;;20.75;7.82;;;2.90;99.90;;;;;;5154909;28;20057;-67
2023/03/07 00:41:53;;;;;;;16.27;7.68;;;2.80;99.90;;;;;;5173386;28;20040;-67
2023/03/07 00:44:28;;;;;;;12.88;6.93;;;2.90;99.90;;;;;;5141948;28;20038;-68
2023/03/07 00:47:03;;;;;;;21.02;8.38;;;2.80;99.90;;;;;;5170710;28;20271;-69
2023/03/07 00:49:40;;;;;;;16.60;7.15;;;2.80;99.90;;;;;;5155968;28;20045;-69
2023/03/07 00:52:12;;;;;;;16.08;7.90;;;2.80;99.90;;;;;;5137523;28;20053;-67
2023/03/07 00:54:48;;;;;;;17.65;7.65;;;2.80;99.90;;;;;;5151708;28;20248;-69
2023/03/07 00:57:22;;;;;;;15.73;6.95;;;2.70;99.90;;;;;;5171877;28;20056;-69
2023/03/07 00:59:56;;;;;;;16.77;7.75;;;2.80;99.90;;;;;;5177259;28;20033;-69
2023/03/07 01:02:28;;;;;;;;;;;2.90;99.90;;;;;;5193792;23;20048;-91
2023/03/07 01:05:02;;;;;;;13.15;7.07;;;2.90;99.90;;;;;;5165896;28;19905;-90
2023/03/07 01:07:35;;;;;;;;;;;2.90;99.90;;;;;;5151629;28;20054;-91
2023/03/07 01:10:16;;;;;;;14.20;6.18;;;2.70;99.90;;;;;;5174994;28;19909;-92
2023/03/07 01:12:48;;;;;;;15.43;7.32;;;2.70;99.90;;;;;;5165165;28;20049;-91
2023/03/07 01:19:11;;;;;;;;;;;2.60;99.90;;;;;;5197996;28;20042;-92
2023/03/07 01:21:45;;;;;;;16.42;6.57;;;2.60;99.90;;;;;;5163623;28;19912;-91
2023/03/07 01:24:17;;;;;;;12.68;6.45;;;2.80;99.90;;;;;;5178502;28;20227;-91
2023/03/07 01:26:49;;;;;;;15.18;7.28;;;2.80;99.90;;;;;;5170922;28;20056;-93
2023/03/07 01:29:32;;;;;;;13.05;7.03;;;2.80;99.90;;;;;;5189732;28;20030;-92
2023/03/07 01:32:07;;;;;;;14.02;7.25;;;2.80;99.90;;;;;;5164070;23;20058;-70
2023/03/07 01:34:39;;;;;;;15.80;6.55;;;2.80;99.90;;;;;;5131891;28;20073;-70
2023/03/07 01:37:13;;;;;;;14.50;6.90;;;2.80;99.90;;;;;;5134427;28;20050;-68
2023/03/07 01:39:53;;;;;;;16.08;7.78;;;2.70;99.90;;;;;;5135921;28;20045;-70
2023/03/07 01:42:32;;;;;;;14.27;7.53;;;2.70;99.90;;;;;;5119346;28;20300;-70
2023/03/07 01:45:08;;;;;;;16.58;7.95;;;2.70;99.90;;;;;;5133959;28;20064;-70
2023/03/07 01:47:42;;;;;;;16.60;7.28;;;2.80;99.90;;;;;;5151401;28;20211;-68
2023/03/07 01:50:17;;;;;;;14.95;7.60;;;2.90;99.90;;;;;;5136182;28;20136;-66
2023/03/07 01:52:58;;;;;;;20.15;8.00;;;2.90;99.90;;;;;;5150855;28;20149;-68
2023/03/07 01:55:38;;;;;;;16.02;7.25;;;2.90;99.90;;;;;;5132362;28;20045;-67
2023/03/07 01:58:14;;;;;;;16.60;7.80;;;2.90;99.90;;;;;;5147055;28;20253;-69
2023/03/07 02:00:46;;;;;;;17.20;7.53;;;2.90;99.90;;;;;;5138741;28;20049;-69
2023/03/07 02:03:54;;;;;;;13.52;7.35;;;2.90;99.90;;;;;;5130567;28;20051;-69
2023/03/07 02:06:29;;;;;;;14.73;7.80;;;2.90;99.90;;;;;;5138653;28;20062;-69
2023/03/07 02:09:02;;;;;;;17.70;7.90;;;2.80;99.90;;;;;;5133914;28;20060;-69
2023/03/07 02:11:33;;;;;;;12.63;6.88;;;2.90;99.90;;;;;;5117456;28;20309;-67
2023/03/07 02:14:07;;;;;;;15.65;6.97;;;3.30;99.90;;;;;;5130037;28;20175;-70
2023/03/07 02:16:42;;;;;;;14.50;7.88;;;3.40;99.90;;;;;;5089907;29;20082;-68
2023/03/07 02:19:48;;;;;;;14.80;6.65;;;3.50;99.90;;;;;;5111321;28;20347;-70
2023/03/07 02:22:19;;;;;;;13.38;6.88;;;3.60;99.90;;;;;;5073953;29;20552;-68
2023/03/07 02:25:14;;;;;;;17.08;7.20;;;3.70;99.90;;;;;;5109925;29;20043;-69
2023/03/07 02:27:52;;;;;;;13.93;6.63;;;3.70;99.90;;;;;;5127619;28;20235;-67
2023/03/07 02:30:25;;;;;;;19.02;7.65;;;3.80;99.90;;;;;;5111784;28;20413;-67
2023/03/07 02:32:59;;;;;;;14.60;6.97;;;3.80;99.90;;;;;;5115138;28;20262;-64
2023/03/07 02:35:33;;;;;;;14.05;7.30;;;3.80;99.90;;;;;;5146389;28;20049;-69
2023/03/07 02:38:10;;;;;;;12.70;6.78;;;3.80;99.90;;;;;;5130029;28;20042;-66
2023/03/07 02:40:41;;;;;;;18.38;6.43;;;3.80;99.90;;;;;;5130458;28;20215;-67
2023/03/07 02:43:13;;;;;;;16.20;7.55;;;3.80;99.90;;;;;;5113477;28;20058;-70
2023/03/07 02:45:47;;;;;;;16.88;6.95;;;3.80;99.90;;;;;;5127614;28;20034;-69
2023/03/07 02:48:19;;;;;;;12.52;6.50;;;3.80;99.90;;;;;;5126963;28;20054;-69
2023/03/07 02:50:51;;;;;;;12.35;6.53;;;3.90;99.90;;;;;;5127114;28;20039;-69
2023/03/07 02:53:28;;;;;;;12.38;6.32;;;3.90;99.90;;;;;;5098094;28;20050;-68
2023/03/07 02:56:02;;;;;;;16.63;7.05;;;3.90;99.90;;;;;;5098121;28;20045;-68
2023/03/07 02:58:38;;;;;;;12.32;6.30;;;4.00;99.90;;;;;;5129555;28;20042;-69
2023/03/07 03:01:10;;;;;;;12.88;6.72;;;3.90;99.90;;;;;;5113437;28;20053;-69
2023/03/07 03:03:43;;;;;;;12.63;6.68;;;3.90;99.90;;;;;;5130766;28;20043;-69
2023/03/07 03:06:14;;;;;;;11.23;5.80;;;4.00;99.90;;;;;;5107788;28;20061;-69
2023/03/07 03:08:46;;;;;;;12.00;6.90;;;4.00;99.90;;;;;;5130811;28;20047;-68
2023/03/07 03:11:18;;;;;;;13.75;7.53;;;4.00;99.90;;;;;;5145053;28;20511;-68
2023/03/07 03:13:49;;;;;;;12.80;6.22;;;3.90;99.90;;;;;;5107802;28;20058;-67
2023/03/07 03:16:20;;;;;;;17.42;7.10;;;3.90;99.90;;;;;;5109169;29;20047;-68
2023/03/07 03:18:54;;;;;;;11.70;6.80;;;3.80;99.90;;;;;;5110710;29;20047;-70
2023/03/07 03:21:28;;;;;;;10.95;6.38;;;3.80;99.90;;;;;;5104473;28;20039;-70
2023/03/07 03:24:07;;;;;;;9.93;5.70;;;3.70;99.90;;;;;;5111141;28;20043;-70
2023/03/07 03:26:41;;;;;;;12.32;6.57;;;3.70;99.90;;;;;;5116104;28;20038;-67
2023/03/07 03:29:15;;;;;;;14.50;7.22;;;3.70;99.90;;;;;;5129679;28;20045;-68
2023/03/07 03:31:55;;;;;;;13.38;6.47;;;3.70;99.90;;;;;;5111535;28;20057;-67
2023/03/07 03:34:37;;;;;;;12.65;6.38;;;3.70;99.90;;;;;;5130030;28;20081;-71
2023/03/07 03:37:14;;;;;;;16.38;6.78;;;3.60;99.90;;;;;;5129730;28;20035;-67
2023/03/07 03:39:46;;;;;;;12.48;6.15;;;3.60;99.90;;;;;;5129534;28;20039;-67
2023/03/07 03:42:19;;;;;;;10.85;5.93;;;3.50;99.90;;;;;;5128577;28;20049;-67
2023/03/07 03:44:50;;;;;;;14.80;6.07;;;3.40;99.90;;;;;;5124869;28;20045;-67
2023/03/07 03:47:27;;;;;;;14.82;6.93;;;3.40;99.90;;;;;;5095247;29;20181;-67
2023/03/07 03:49:58;;;;;;;14.10;6.05;;;3.30;99.90;;;;;;5100242;28;20053;-70
2023/03/07 03:52:30;;;;;;;13.40;6.00;;;3.30;99.90;;;;;;5104688;28;20050;-68
2023/03/07 03:55:08;;;;;;;13.73;6.43;;;3.30;99.90;;;;;;5105819;28;20054;-70
2023/03/07 03:57:41;;;;;;;14.95;6.78;;;3.20;99.90;;;;;;5122507;28;20043;-68
2023/03/07 04:00:14;;;;;;;13.90;7.13;;;3.10;99.90;;;;;;5129064;28;20035;-68
2023/03/07 04:02:46;;;;;;;14.70;6.63;;;3.00;99.90;;;;;;5130577;28;20042;-67
2023/03/07 04:05:21;;;;;;;14.32;6.60;;;3.00;99.90;;;;;;5126458;28;20047;-68
2023/03/07 04:07:55;;;;;;;;;;;3.00;99.90;;;;;;5117015;28;20050;-67
2023/03/07 04:10:29;;;;;;;11.00;6.00;;;2.90;99.90;;;;;;5110314;29;19924;-68
2023/03/07 04:13:03;;;;;;;9.80;5.38;;;2.90;99.90;;;;;;5100007;29;20127;-67
2023/03/07 04:15:37;;;;;;;17.95;6.63;;;2.90;99.90;;;;;;5106046;28;20052;-68
2023/03/07 04:18:11;;;;;;;13.18;6.45;;;2.80;99.90;;;;;;5132452;28;20046;-69
2023/03/07 04:20:50;;;;;;;15.70;6.55;;;2.80;99.90;;;;;;5113222;28;20035;-67
2023/03/07 04:23:26;;;;;;;13.45;6.90;;;2.80;99.90;;;;;;5081152;29;20043;-68
2023/03/07 04:26:05;;;;;;;12.63;6.22;;;2.70;99.90;;;;;;5113703;28;20069;-69
2023/03/07 04:31:23;;;;;;;16.15;7.38;;;2.70;99.90;;;;;;5120094;28;20060;-67
2023/03/07 04:34:01;;;;;;;15.68;6.88;;;2.70;99.90;;;;;;5132318;28;20042;-66
2023/03/07 04:36:38;;;;;;;11.43;6.82;;;2.60;99.90;;;;;;5132211;28;20048;-68
2023/03/07 04:39:12;;;;;;;12.15;5.90;;;2.60;99.90;;;;;;5148525;28;20043;-68
2023/03/07 04:41:45;;;;;;;12.35;6.05;;;2.60;99.90;;;;;;5116922;28;20058;-67
2023/03/07 04:44:19;;;;;;;12.00;6.28;;;2.60;99.90;;;;;;5143788;28;20027;-68
2023/03/07 04:46:57;;;;;;;18.27;6.55;;;2.60;99.90;;;;;;5093407;28;20236;-67
2023/03/07 04:49:29;;;;;;;13.57;6.72;;;2.60;99.90;;;;;;5095378;29;20043;-65
2023/03/07 04:52:00;;;;;;;12.70;7.10;;;2.60;99.90;;;;;;5144015;28;20049;-68
2023/03/07 04:54:35;;;;;;;11.43;5.53;;;2.60;99.90;;;;;;5127110;28;20335;-68
2023/03/07 04:57:07;;;;;;;10.15;5.75;;;2.60;99.90;;;;;;5130052;28;20342;-68
2023/03/07 04:59:41;;;;;;;13.60;6.25;;;2.60;99.90;;;;;;5127347;28;20039;-68
2023/03/07 05:02:12;;;;;;;11.57;6.27;;;2.60;99.90;;;;;;5121240;28;20042;-68
2023/03/07 05:04:46;;;;;;;16.75;5.68;;;2.70;99.90;;;;;;5126037;28;20302;-68
2023/03/07 05:07:18;;;;;;;;;;;2.70;99.90;;;;;;5116458;28;20054;-69
2023/03/07 05:09:49;;;;;;;10.77;6.00;;;2.90;99.90;;;;;;5115784;28;19917;-69
2023/03/07 05:12:29;;;;;;;8.88;5.57;;;3.00;99.90;;;;;;5132278;28;20053;-66
2023/03/07 05:15:05;;;;;;;9.18;5.35;;;3.10;99.90;;;;;;5126489;28;20050;-69
2023/03/07 05:17:36;;;;;;;10.77;5.65;;;3.20;99.90;;;;;;5081249;28;20053;-69
2023/03/07 05:20:11;;;;;;;12.40;5.82;;;3.30;99.90;;;;;;5112839;28;20355;-70
2023/03/07 05:22:43;;;;;;;9.52;6.15;;;3.30;99.90;;;;;;5104125;28;20045;-69
2023/03/07 05:25:15;;;;;;;9.32;5.53;;;3.40;99.90;;;;;;5118015;28;20034;-67
2023/03/07 05:27:47;;;;;;;9.35;5.20;;;3.40;99.90;;;;;;5135041;28;20049;-68
2023/03/07 05:30:23;;;;;;;7.97;4.72;;;3.50;99.90;;;;;;5128073;28;20366;-68
2023/03/07 05:32:59;;;;;;;12.70;5.32;;;3.50;99.90;;;;;;5146624;28;20043;-69
2023/03/07 05:35:34;;;;;;;9.50;4.30;;;3.50;99.90;;;;;;5131027;28;20039;-69
2023/03/07 05:38:08;;;;;;;7.70;4.55;;;3.60;99.90;;;;;;5131550;28;20062;-69
2023/03/07 05:40:39;;;;;;;;;;;3.60;99.90;;;;;;5131329;28;20034;-68
2023/03/07 05:43:11;;;;;;;18.30;6.50;;;3.60;99.90;;;;;;5131022;28;20360;-67
2023/03/07 05:45:44;;;;;;;11.85;6.50;;;3.60;99.90;;;;;;5110251;28;20361;-69
2023/03/07 05:48:19;;;;;;;9.75;6.10;;;3.50;99.90;;;;;;5150565;28;20266;-68
2023/03/07 05:50:53;;;;;;;13.35;7.15;;;3.40;99.90;;;;;;5126908;28;20055;-69
2023/03/07 05:53:27;;;;;;;;;;;3.40;99.90;;;;;;5127072;28;20043;-69
2023/03/07 05:56:00;;;;;;;9.70;4.78;;;3.40;99.90;;;;;;5129911;28;19910;-67
2023/03/07 05:58:32;;;;;;;12.43;6.03;;;3.50;99.90;;;;;;5129720;28;20061;-69
2023/03/07 06:01:06;;;;;;;8.20;5.15;;;3.60;99.90;;;;;;5143868;28;20042;-67
2023/03/07 06:03:38;;;;;;;9.65;5.22;;;3.70;99.90;;;;;;5121442;28;20050;-66
2023/03/07 06:06:11;;;;;;;10.38;5.18;;;3.70;99.90;;;;;;5140028;28;20061;-68
2023/03/07 06:08:43;;;;;;;8.63;5.28;;;3.80;99.90;;;;;;5092192;28;20061;-68
2023/03/07 06:11:15;;;;;;;12.43;5.55;;;3.90;99.90;;;;;;5112666;28;20051;-69
2023/03/07 06:13:50;;;;;;;8.35;5.22;;;3.90;99.90;;;;;;5108016;28;20621;-67
2023/03/07 06:16:27;;;;;;;12.43;5.65;;;4.00;99.90;;;;;;5123966;28;20039;-69
2023/03/07 06:19:02;;;;;;;11.23;6.07;;;4.00;99.90;;;;;;5139816;28;20038;-69
2023/03/07 06:21:36;;;;;;;14.13;6.38;;;4.10;99.90;;;;;;5111804;28;20257;-67
2023/03/07 06:24:10;;;;;;;21.48;7.03;;;4.20;99.90;;;;;;5145490;28;20048;-66
2023/03/07 06:26:46;;;;;;;15.10;7.00;;;4.30;99.90;;;;;;5105848;28;20392;-67
2023/03/07 06:29:17;;;;;;;15.02;6.80;;;4.40;99.90;;;;;;5123986;28;20043;-68
2023/03/07 06:31:53;;;;;;;12.23;6.70;;;4.30;99.90;;;;;;5122130;28;20046;-68
2023/03/07 06:34:26;;;;;;;11.57;6.10;;;4.30;99.90;;;;;;5125523;28;20053;-69
2023/03/07 06:36:58;;;;;;;14.65;6.95;;;4.30;99.90;;;;;;5110919;28;20152;-68
2023/03/07 06:39:32;;;;;;;11.25;6.28;;;4.20;99.90;;;;;;5130537;28;20049;-67
2023/03/07 06:42:04;;;;;;;14.75;7.80;;;4.30;99.90;;;;;;5112245;28;20050;-69
2023/03/07 06:44:35;;;;;;;18.25;8.50;;;4.40;99.90;;;;;;5130219;28;20042;-69
2023/03/07 06:47:07;;;;;;;12.15;7.63;;;4.40;99.90;;;;;;5093731;28;20135;-69
2023/03/07 06:49:38;;;;;;;10.75;7.10;;;4.50;99.90;;;;;;5123368;28;20421;-68
2023/03/07 06:52:12;;;;;;;13.55;7.18;;;4.60;99.90;;;;;;5123051;28;20078;-69
2023/03/07 06:54:45;;;;;;;11.95;6.55;;;4.70;99.90;;;;;;5145094;28;20046;-69
2023/03/07 06:57:22;;;;;;;13.50;8.18;;;4.90;99.90;;;;;;5123767;28;20368;-68
2023/03/07 06:59:54;;;;;;;18.98;7.93;;;5.10;99.90;;;;;;5107881;29;20035;-67
2023/03/07 07:02:28;;;;;;;13.52;7.10;;;5.10;99.90;;;;;;5101564;28;20049;-68
2023/03/07 07:05:05;;;;;;;16.00;8.55;;;5.20;99.90;;;;;;5102660;28;20354;-68
2023/03/07 07:07:36;;;;;;;13.88;7.10;;;5.30;99.90;;;;;;5108991;29;20337;-69
2023/03/07 07:10:09;;;;;;;13.50;6.80;;;5.40;99.90;;;;;;5119976;28;20060;-68
2023/03/07 07:12:40;;;;;;;15.85;7.35;;;5.50;99.90;;;;;;5128593;28;20228;-68
2023/03/07 07:15:12;;;;;;;13.25;7.20;;;5.60;99.90;;;;;;5125584;28;20289;-68
2023/03/07 07:17:46;;;;;;;13.52;6.95;;;5.80;99.90;;;;;;5128698;28;20225;-67
2023/03/07 07:20:22;;;;;;;10.10;5.63;;;5.90;99.90;;;;;;5128453;28;20276;-70
2023/03/07 07:22:55;;;;;;;14.50;6.00;;;6.00;99.90;;;;;;5132494;28;20253;-66
2023/03/07 07:25:29;;;;;;;10.10;6.13;;;6.00;99.90;;;;;;5130951;28;20153;-68
2023/03/07 07:28:05;;;;;;;13.20;6.93;;;5.90;99.90;;;;;;5078735;28;20275;-69
2023/03/07 07:30:37;;;;;;;13.23;6.32;;;6.00;99.90;;;;;;5092940;29;20250;-68
2023/03/07 07:33:14;;;;;;;9.95;6.28;;;6.20;99.90;;;;;;5095808;29;20043;-69
2023/03/07 07:35:49;;;;;;;13.15;7.40;;;6.40;99.90;;;;;;5096345;29;20058;-69
2023/03/07 07:38:28;;;;;;;15.65;6.72;;;6.70;99.90;;;;;;5111921;29;20247;-68
2023/03/07 07:41:01;;;;;;;14.27;7.70;;;7.00;99.90;;;;;;5114056;28;20258;-65
2023/03/07 07:43:32;;;;;;;13.82;6.35;;;7.30;99.90;;;;;;5131843;28;20481;-67
2023/03/07 07:46:04;;;;;;;14.68;6.85;;;7.30;99.90;;;;;;5144177;28;20250;-68
2023/03/07 07:48:41;;;;;;;16.55;6.97;;;7.40;99.90;;;;;;5115067;28;20049;-69
2023/03/07 07:51:17;;;;;;;13.38;7.68;;;7.40;99.90;;;;;;5128302;28;20047;-67
2023/03/07 07:53:51;;;;;;;15.25;7.53;;;7.40;99.90;;;;;;5116424;28;20374;-68
2023/03/07 07:56:24;;;;;;;13.27;7.53;;;7.50;99.90;;;;;;5111131;28;20047;-69
2023/03/07 07:58:58;;;;;;;12.25;7.78;;;7.50;99.90;;;;;;5091076;29;20047;-68
2023/03/07 08:01:30;;;;;;;16.13;8.43;;;7.60;99.90;;;;;;5087118;28;20244;-69
2023/03/07 08:04:02;;;;;;;18.83;9.00;;;7.60;99.90;;;;;;5131876;28;20320;-70
2023/03/07 08:06:38;;;;;;;17.05;8.50;;;7.40;99.90;;;;;;5137790;28;20474;-67
2023/03/07 08:09:10;;;;;;;14.88;8.05;;;7.30;99.90;;;;;;5115054;28;20041;-68
2023/03/07 08:11:41;;;;;;;14.65;7.95;;;7.30;99.90;;;;;;5131279;28;20346;-66
2023/03/07 08:14:15;;;;;;;12.40;6.78;;;7.40;99.90;;;;;;5114856;28;20312;-69
2023/03/07 08:16:47;;;;;;;15.30;7.40;;;7.50;99.90;;;;;;5127513;28;20236;-67
2023/03/07 08:19:18;;;;;;;17.02;8.25;;;7.30;99.90;;;;;;5113703;28;20050;-68
2023/03/07 08:21:52;;;;;;;16.45;7.05;;;7.20;99.90;;;;;;5126567;28;20247;-69
2023/03/07 08:24:31;;;;;;;13.77;7.30;;;7.40;99.90;;;;;;5095950;29;20248;-67
2023/03/07 08:27:03;;;;;;;13.55;7.70;;;7.40;99.90;;;;;;5120642;28;20046;-68
2023/03/07 08:29:40;;;;;;;15.68;6.72;;;7.50;99.90;;;;;;5131525;28;20266;-68
2023/03/07 08:32:19;;;;;;;19.05;7.32;;;7.60;99.90;;;;;;5111858;28;20050;-68
2023/03/07 08:34:57;;;;;;;16.08;7.38;;;7.70;99.90;;;;;;5130828;28;20272;-70
2023/03/07 08:37:31;;;;;;;17.42;6.65;;;7.90;99.90;;;;;;5129783;28;20048;-66
2023/03/07 08:40:06;;;;;;;11.95;7.30;;;8.00;99.90;;;;;;5129712;28;20053;-68
2023/03/07 08:42:37;;;;;;;13.70;6.65;;;8.20;99.90;;;;;;5113160;28;20077;-68
2023/03/07 08:45:09;;;;;;;14.35;6.85;;;8.40;99.90;;;;;;5109895;28;20046;-68
2023/03/07 08:47:47;;;;;;;15.73;8.13;;;8.70;99.90;;;;;;5126443;28;20447;-68
2023/03/07 08:50:25;;;;;;;13.82;7.38;;;8.90;99.90;;;;;;5114382;28;20030;-69
2023/03/07 08:52:57;;;;;;;16.70;7.60;;;9.30;99.90;;;;;;5094824;28;20081;-68
2023/03/07 08:55:28;;;;;;;12.68;7.70;;;9.60;99.90;;;;;;5109861;28;20288;-68
2023/03/07 08:58:00;;;;;;;12.90;7.15;;;10.00;99.90;;;;;;5126649;28;20047;-68
2023/03/07 09:00:36;;;;;;;14.23;7.25;;;10.20;99.90;;;;;;5109048;28;20054;-68
2023/03/07 09:03:10;;;;;;;14.48;7.60;;;10.40;99.90;;;;;;5145674;28;20256;-68
2023/03/07 09:05:44;;;;;;;14.35;7.82;;;10.00;99.90;;;;;;5123206;28;20366;-66
2023/03/07 09:08:18;;;;;;;;;;;10.00;99.90;;;;;;5113943;28;20050;-67
2023/03/07 09:11:04;;;;;;;13.10;7.65;;;9.80;99.90;;;;;;5129477;28;19928;-66
2023/03/07 09:13:35;;;;;;;17.38;8.18;;;9.50;99.90;;;;;;5129451;28;20061;-70
2023/03/07 09:16:07;;;;;;;15.60;7.45;;;9.20;99.90;;;;;;5126231;28;20362;-68
2023/03/07 09:18:41;;;;;;;14.23;8.10;;;9.40;99.90;;;;;;5113710;28;20038;-69
2023/03/07 09:21:13;;;;;;;12.95;7.35;;;9.60;99.90;;;;;;5145235;28;20363;-68
2023/03/07 09:23:50;;;;;;;13.30;7.15;;;9.20;99.90;;;;;;5129856;28;20188;-67
2023/03/07 09:26:27;;;;;;;12.48;7.00;;;9.40;99.90;;;;;;5129943;28;20031;-67
2023/03/07 09:28:59;;;;;;;11.88;7.28;;;9.20;99.90;;;;;;5129367;28;20042;-69
2023/03/07 09:31:33;;;;;;;18.15;8.27;;;9.20;99.90;;;;;;5109465;28;20042;-67
2023/03/07 09:34:10;;;;;;;16.92;7.88;;;9.40;99.90;;;;;;5128660;28;20073;-67
2023/03/07 09:36:44;;;;;;;16.40;8.23;;;9.50;99.90;;;;;;5145498;28;20248;-68
2023/03/07 09:39:15;;;;;;;15.43;7.38;;;9.80;99.90;;;;;;5143555;28;20049;-68
2023/03/07 09:42:21;;;;;;;13.90;7.38;;;10.20;99.90;;;;;;5112777;28;20478;-69
2023/03/07 09:45:28;;;;;;;16.67;7.40;;;10.40;99.90;;;;;;5128105;28;20411;-70
2023/03/07 09:48:39;;;;;;;12.35;7.35;;;10.50;99.90;;;;;;5145446;28;20376;-69
2023/03/07 09:51:26;;;;;;;17.25;8.25;;;10.70;99.90;;;;;;5129750;28;20031;-68
2023/03/07 09:54:13;;;;;;;13.95;5.90;;;11.30;99.90;;;;;;5119908;28;20039;-67
2023/03/07 09:57:02;;;;;;;10.30;6.07;;;11.70;99.90;;;;;;5119129;28;20037;-67
2023/03/07 10:00:02;;;;;;;9.40;6.10;;;11.80;99.90;;;;;;5129639;28;20355;-67
2023/03/07 10:02:50;;;;;;;9.63;5.53;;;12.60;99.90;;;;;;5123690;28;20039;-67
2023/03/07 10:05:39;;;;;;;10.98;6.15;;;12.60;99.90;;;;;;5123220;28;20058;-67
2023/03/07 10:08:27;;;;;;;8.60;5.90;;;12.10;99.90;;;;;;5113706;28;20047;-69
2023/03/07 10:11:07;;;;;;;10.35;5.60;;;12.00;99.90;;;;;;5131046;28;20027;-69
2023/03/07 10:14:19;;;;;;;11.40;6.20;;;11.80;99.90;;;;;;5116905;28;20035;-67
2023/03/07 10:17:16;;;;;;;8.93;5.90;;;12.20;99.90;;;;;;5123743;28;20035;-69
2023/03/07 10:20:13;;;;;;;10.05;5.40;;;12.30;99.90;;;;;;5124232;28;20625;-69
2023/03/07 10:23:24;;;;;;;12.82;5.68;;;12.00;99.90;;;;;;5110774;29;20043;-70
2023/03/07 10:26:20;;;;;;;12.93;5.93;;;12.00;99.90;;;;;;5093357;28;20308;-67
2023/03/07 10:28:54;;;;;;;10.10;5.75;;;12.00;99.90;;;;;;5112407;28;20051;-69
2023/03/07 10:31:41;;;;;;;11.88;6.22;;;11.90;99.90;;;;;;5144140;28;20043;-69
2023/03/07 10:34:28;;;;;;;11.10;5.85;;;12.20;99.90;;;;;;5097788;28;20045;-69
2023/03/07 10:37:22;;;;;;;15.23;6.68;;;10.80;99.90;;;;;;5127897;28;20051;-68
2023/03/07 10:39:55;;;;;;;10.30;5.88;;;10.60;99.90;;;;;;5129440;28;20034;-69
2023/03/07 10:42:38;;;;;;;11.85;6.30;;;10.50;99.90;;;;;;5111650;28;20041;-67
2023/03/07 10:45:17;;;;;;;14.30;6.90;;;10.40;99.90;;;;;;5124759;28;20049;-67
2023/03/07 10:47:51;;;;;;;17.00;7.03;;;10.80;99.90;;;;;;5122119;28;20047;-65
2023/03/07 10:50:37;;;;;;;11.37;7.43;;;11.00;99.90;;;;;;5112225;28;20057;-68
2023/03/07 10:53:30;;;;;;;11.27;6.45;;;11.50;99.90;;;;;;5112050;28;20272;-65
2023/03/07 10:56:16;;;;;;;13.02;7.72;;;12.40;99.90;;;;;;5128383;28;20049;-68
2023/03/07 10:58:58;;;;;;;16.10;8.02;;;12.80;99.90;;;;;;5132567;28;20049;-71
2023/03/07 11:01:32;;;;;;;15.57;8.65;;;12.00;99.90;;;;;;5115667;28;20034;-70
2023/03/07 11:04:21;;;;;;;15.70;7.50;;;12.40;99.90;;;;;;5115318;28;20046;-67
2023/03/07 11:07:03;;;;;;;15.85;7.35;;;13.30;99.90;;;;;;5122130;28;20054;-71
2023/03/07 11:09:50;;;;;;;13.55;6.68;;;14.10;99.90;;;;;;5111666;28;20040;-70
2023/03/07 11:12:28;;;;;;;13.43;7.13;;;13.70;99.90;;;;;;5083314;28;20554;-70
2023/03/07 11:15:20;;;;;;;16.80;7.68;;;13.50;99.90;;;;;;5132853;28;20043;-70
2023/03/07 11:17:55;;;;;;;13.15;7.00;;;13.40;99.90;;;;;;5115955;28;20413;-68
2023/03/07 11:20:51;;;;;;;16.05;7.93;;;12.60;99.90;;;;;;5129138;28;20054;-68
2023/03/07 11:23:30;;;;;;;16.50;8.23;;;12.30;99.90;;;;;;5112761;29;20590;-70
2023/03/07 11:26:23;;;;;;;15.05;7.95;;;12.60;99.90;;;;;;5116760;28;20530;-69
2023/03/07 11:29:13;;;;;;;15.18;6.95;;;12.30;99.90;;;;;;5148566;28;20034;-68
2023/03/07 11:32:12;;;;;;;15.15;7.57;;;12.10;99.90;;;;;;5129825;28;20042;-68
2023/03/07 11:34:58;;;;;;;9.95;6.47;;;12.40;99.90;;;;;;5100693;28;20042;-67
2023/03/07 11:37:38;;;;;;;13.80;7.95;;;11.60;99.90;;;;;;5133473;28;20043;-69
2023/03/07 11:40:26;;;;;;;13.13;8.65;;;11.20;99.90;;;;;;5132158;28;20053;-69
2023/03/07 11:43:06;;;;;;;11.27;6.57;;;11.20;99.90;;;;;;5107794;28;20046;-66
2023/03/07 11:46:12;;;;;;;16.67;8.02;;;12.30;99.90;;;;;;5126975;28;20057;-68
2023/03/07 11:49:08;;;;;;;12.32;6.95;;;12.30;99.90;;;;;;5124280;28;20518;-67
2023/03/07 11:51:54;;;;;;;10.82;6.50;;;12.40;99.90;;;;;;5143219;28;20058;-69
2023/03/07 11:54:34;;;;;;;10.65;6.65;;;13.90;99.90;;;;;;5121883;28;20243;-68
2023/03/07 11:57:46;;;;;;;14.02;7.00;;;14.70;99.90;;;;;;5130162;28;20038;-69
2023/03/07 12:00:51;;;;;;;10.23;6.53;;;14.20;99.90;;;;;;5097024;29;20047;-69
2023/03/07 12:04:21;;;;;;;11.18;7.05;;;14.80;99.90;;;;;;5112428;29;20057;-66
2023/03/07 12:07:20;;;;;;;9.90;6.15;;;14.10;99.90;;;;;;5041919;29;20044;-69
2023/03/07 12:10:03;;;;;;;8.60;6.07;;;15.30;99.90;;;;;;5120010;28;20066;-68
2023/03/07 12:13:18;;;;;;;9.10;5.57;;;15.50;99.90;;;;;;5130754;28;20078;-68
2023/03/07 12:16:10;;;;;;;9.45;6.13;;;15.80;99.90;;;;;;5130569;28;20049;-69
2023/03/07 12:19:23;;;;;;;8.23;5.53;;;14.50;99.90;;;;;;5131513;28;20097;-68
2023/03/07 12:22:19;;;;;;;9.57;5.65;;;14.30;99.90;;;;;;5110983;29;20051;-67
2023/03/07 12:25:27;;;;;;;10.40;5.90;;;14.80;99.90;;;;;;5127795;28;20433;-68
2023/03/07 12:28:10;;;;;;;9.07;4.93;;;15.30;99.90;;;;;;5111630;28;20049;-69
2023/03/07 12:30:58;;;;;;;9.95;5.32;;;15.60;99.90;;;;;;5129969;28;20117;-69
2023/03/07 12:34:02;;;;;;;8.88;5.65;;;14.80;99.90;;;;;;5131067;28;20361;-67
2023/03/07 12:36:47;;;;;;;7.13;5.18;;;15.00;99.90;;;;;;5130412;28;20047;-68
2023/03/07 12:39:56;;;;;;;8.57;5.57;;;15.80;99.90;;;;;;5131645;28;20341;-68
2023/03/07 12:42:46;;;;;;;11.43;5.72;;;15.20;99.90;;;;;;5131804;28;20035;-65
2023/03/07 12:45:22;;;;;;;8.95;5.35;;;14.10;99.90;;;;;;5113796;28;20042;-69
2023/03/07 12:48:05;;;;;;;6.47;4.53;;;14.20;99.90;;;;;;5114574;28;20358;-69
2023/03/07 12:50:58;;;;;;;7.82;4.82;;;14.00;99.90;;;;;;5110114;28;20324;-70
2023/03/07 12:53:37;;;;;;;6.63;4.65;;;13.40;99.90;;;;;;5112102;28;20035;-69
2023/03/07 12:56:59;;;;;;;8.38;4.70;;;13.50;99.90;;;;;;5114059;28;20042;-67
2023/03/07 12:59:36;;;;;;;5.78;4.43;;;13.40;99.90;;;;;;5124774;28;20035;-69
2023/03/07 13:02:22;;;;;;;6.53;4.80;;;13.80;99.90;;;;;;5118878;28;20035;-69
2023/03/07 13:04:54;;;;;;;7.05;4.20;;;14.30;99.90;;;;;;5110370;28;20046;-68
2023/03/07 13:07:29;;;;;;;12.80;5.15;;;14.60;99.90;;;;;;5088759;29;20269;-68
2023/03/07 13:10:07;;;;;;;8.10;4.45;;;15.00;99.90;;;;;;5125933;28;20029;-67
2023/03/07 13:12:39;;;;;;;7.68;4.78;;;14.20;99.90;;;;;;5109239;29;20521;-70
2023/03/07 13:15:16;;;;;;;8.65;5.03;;;14.60;99.90;;;;;;5110436;28;20225;-66
2023/03/07 13:17:51;;;;;;;6.93;4.70;;;14.80;99.90;;;;;;5109481;28;20046;-68
2023/03/07 13:20:43;;;;;;;8.98;5.18;;;14.60;99.90;;;;;;5114218;28;20537;-68
2023/03/07 13:23:26;;;;;;;6.10;4.38;;;14.90;99.90;;;;;;5098251;28;20038;-66
2023/03/07 13:26:00;;;;;;;;;;;14.50;99.90;;;;;;5112860;28;21084;-66
2023/03/07 13:28:49;;;;;;;8.75;5.35;;;13.80;99.90;;;;;;5130210;28;19925;-66
2023/03/07 13:31:25;;;;;;;7.45;5.03;;;12.70;99.90;;;;;;5129271;28;20215;-67
2023/03/07 13:34:45;;;;;;;7.35;5.18;;;12.70;99.90;;;;;;5113958;28;20053;-68
2023/03/07 13:38:13;;;;;;;6.97;4.90;;;13.00;99.90;;;;;;5129817;28;20031;-67
2023/03/07 13:40:47;;;;;;;9.15;5.05;;;12.20;99.90;;;;;;5109608;29;20043;-66
2023/03/07 13:43:21;;;;;;;8.00;4.28;;;11.90;99.90;;;;;;5110273;28;20051;-67
2023/03/07 13:45:56;;;;;;;9.23;5.00;;;11.30;99.90;;;;;;5110856;28;20031;-70
2023/03/07 13:48:27;;;;;;;7.20;4.35;;;10.80;99.90;;;;;;5112915;28;20051;-68
2023/03/07 13:51:01;;;;;;;7.53;4.80;;;10.80;99.90;;;;;;5130749;28;20050;-66
2023/03/07 13:53:45;;;;;;;6.70;4.20;;;10.20;99.90;;;;;;5116903;28;20046;-65